createdAt,value
2019-02-14T00:02:55.690Z,1.40
2019-02-14T00:06:11.769Z,1.40
2019-02-14T00:09:27.945Z,1.30
2019-02-14T00:12:44.106Z,1.10
2019-02-14T00:16:00.002Z,1.67
2019-02-14T00:19:15.205Z,1.30
2019-02-14T00:22:30.981Z,1.40
2019-02-14T00:25:46.263Z,1.37
2019-02-14T00:29:02.119Z,1.30
2019-02-14T00:32:18.339Z,1.27
2019-02-14T00:35:34.305Z,1.60
2019-02-14T00:38:50.350Z,1.20
2019-02-14T00:42:06.353Z,1.40
2019-02-14T00:45:22.271Z,1.47
2019-02-14T00:48:38.044Z,1.07
2019-02-14T00:51:51.710Z,1.20
2019-02-14T00:55:14.391Z,1.40
2019-02-14T00:58:30.298Z,1.43
2019-02-14T01:01:46.255Z,1.40
2019-02-14T01:05:01.627Z,1.33
2019-02-14T01:08:17.548Z,1.20
2019-02-14T01:11:33.572Z,1.20
2019-02-14T01:14:49.622Z,1.30
2019-02-14T01:18:05.595Z,1.20
2019-02-14T01:21:19.169Z,1.43
2019-02-14T01:24:34.663Z,1.50
2019-02-14T01:27:50.571Z,1.20
2019-02-14T01:31:06.351Z,1.30
2019-02-14T01:34:21.573Z,1.47
2019-02-14T01:37:37.242Z,1.10
2019-02-14T01:40:52.910Z,1.63
2019-02-14T01:44:08.534Z,1.30
2019-02-14T01:47:24.397Z,1.40
2019-02-14T01:50:40.468Z,1.20
2019-02-14T01:53:56.359Z,1.30
2019-02-14T01:57:12.246Z,1.20
2019-02-14T02:00:28.015Z,1.30
2019-02-14T02:03:43.804Z,1.30
2019-02-14T02:06:59.666Z,1.30
2019-02-14T02:10:15.761Z,1.10
2019-02-14T02:13:31.369Z,1.30
2019-02-14T02:16:47.111Z,1.33
2019-02-14T02:20:02.756Z,1.20
2019-02-14T02:23:18.716Z,1.30
2019-02-14T02:26:34.735Z,1.40
2019-02-14T02:29:50.700Z,1.40
2019-02-14T02:33:06.482Z,1.23
2019-02-14T02:36:22.430Z,1.17
2019-02-14T02:39:38.474Z,1.40
2019-02-14T02:42:53.991Z,1.30
2019-02-14T02:46:09.865Z,1.00
2019-02-14T02:49:25.476Z,1.37
2019-02-14T02:52:41.191Z,1.10
2019-02-14T02:55:56.949Z,1.10
2019-02-14T02:59:14.189Z,1.27
2019-02-14T03:02:30.471Z,1.13
2019-02-14T03:05:46.646Z,1.30
2019-02-14T03:09:02.442Z,1.40
2019-02-14T03:12:18.444Z,1.30
2019-02-14T03:15:34.049Z,1.40
2019-02-14T03:18:49.435Z,1.10
2019-02-14T03:25:52.086Z,1.10
2019-02-14T03:29:08.149Z,1.10
2019-02-14T03:32:23.904Z,1.30
2019-02-14T03:35:39.664Z,1.10
2019-02-14T03:38:54.915Z,1.20
2019-02-14T03:42:10.374Z,1.20
2019-02-14T03:45:25.658Z,1.10
2019-02-14T03:48:41.666Z,1.10
2019-02-14T03:51:57.219Z,1.27
2019-02-14T03:55:13.217Z,1.20
2019-02-14T03:58:29.390Z,1.10
2019-02-14T04:01:45.151Z,1.20
2019-02-14T04:05:01.118Z,1.23
2019-02-14T04:08:17.175Z,1.23
2019-02-14T04:11:32.962Z,1.10
2019-02-14T04:14:48.933Z,1.20
2019-02-14T04:18:04.866Z,1.10
2019-02-14T04:21:20.918Z,1.10
2019-02-14T04:24:36.214Z,1.27
2019-02-14T04:27:52.365Z,1.20
2019-02-14T04:31:07.651Z,1.27
2019-02-14T04:34:23.026Z,1.13
2019-02-14T04:37:38.854Z,1.10
2019-02-14T04:40:54.839Z,1.23
2019-02-14T04:44:10.603Z,1.30
2019-02-14T04:47:26.714Z,1.30
2019-02-14T04:50:42.666Z,1.13
2019-02-14T04:53:58.410Z,1.10
2019-02-14T04:57:14.511Z,1.20
2019-02-14T05:00:30.277Z,1.10
2019-02-14T05:03:46.149Z,1.10
2019-02-14T05:07:01.550Z,1.03
2019-02-14T05:10:17.634Z,1.10
2019-02-14T05:13:32.885Z,1.20
2019-02-14T05:16:48.932Z,1.20
2019-02-14T05:20:04.766Z,1.30
2019-02-14T05:23:18.419Z,1.33
2019-02-14T05:26:41.103Z,1.17
2019-02-14T05:29:56.679Z,0.90
2019-02-14T05:33:12.659Z,1.30
2019-02-14T05:36:28.671Z,1.20
2019-02-14T05:39:44.482Z,1.10
2019-02-14T05:42:59.711Z,1.27
2019-02-14T05:46:15.114Z,1.20
2019-02-14T05:49:28.690Z,1.20
2019-02-14T05:52:44.356Z,1.10
2019-02-14T05:56:00.430Z,0.97
2019-02-14T05:59:16.430Z,1.30
2019-02-14T06:02:32.338Z,1.07
2019-02-14T06:05:47.723Z,1.20
2019-02-14T06:09:04.833Z,0.90
2019-02-14T06:12:20.644Z,1.10
2019-02-14T06:15:35.856Z,1.30
2019-02-14T06:18:51.795Z,1.00
2019-02-14T06:22:07.058Z,1.30
2019-02-14T06:25:23.136Z,1.20
2019-02-14T06:28:39.026Z,1.00
2019-02-14T06:31:55.030Z,1.10
2019-02-14T06:35:10.510Z,0.90
2019-02-14T06:38:25.893Z,1.23
2019-02-14T06:41:39.478Z,1.13
2019-02-14T06:44:55.131Z,1.10
2019-02-14T06:48:10.403Z,1.07
2019-02-14T06:51:25.886Z,0.97
2019-02-14T06:54:41.998Z,0.80
2019-02-14T06:57:57.390Z,1.30
2019-02-14T07:01:13.538Z,1.00
2019-02-14T07:04:28.725Z,1.27
2019-02-14T07:07:44.680Z,1.07
2019-02-14T07:11:00.606Z,1.10
2019-02-14T07:17:41.175Z,1.10
2019-02-14T07:20:56.946Z,1.20
2019-02-14T07:24:12.150Z,1.17
2019-02-14T07:27:25.805Z,1.10
2019-02-14T07:30:41.657Z,1.20
2019-02-14T07:33:57.607Z,1.10
2019-02-14T07:37:12.958Z,1.00
2019-02-14T07:40:29.792Z,1.20
2019-02-14T07:43:33.177Z,0.93
2019-02-14T07:46:55.939Z,1.20
2019-02-14T07:50:18.632Z,1.17
2019-02-14T07:53:34.643Z,1.27
2019-02-14T07:56:52.449Z,1.40
2019-02-14T08:00:07.603Z,1.27
2019-02-14T08:03:23.671Z,1.10
2019-02-14T08:06:39.675Z,1.23
2019-02-14T08:09:55.567Z,1.30
2019-02-14T08:13:12.441Z,1.00
2019-02-14T08:16:28.392Z,1.40
2019-02-14T08:19:44.438Z,1.20
2019-02-14T08:23:00.587Z,1.20
2019-02-14T08:26:16.655Z,1.30
2019-02-14T08:29:32.642Z,1.30
2019-02-14T08:32:48.495Z,1.17
2019-02-14T08:36:03.776Z,1.10
2019-02-14T08:39:18.922Z,1.13
2019-02-14T08:42:34.181Z,1.20
2019-02-14T08:45:50.289Z,1.20
2019-02-14T08:49:06.359Z,1.20
2019-02-14T08:52:21.531Z,1.43
2019-02-14T08:55:35.190Z,1.20
2019-02-14T08:58:57.881Z,1.30
2019-02-14T09:02:13.192Z,1.20
2019-02-14T09:05:29.306Z,1.23
2019-02-14T09:08:45.353Z,1.27
2019-02-14T09:12:01.203Z,1.30
2019-02-14T09:15:17.043Z,1.10
2019-02-14T09:18:32.899Z,1.20
2019-02-14T09:21:48.878Z,1.37
2019-02-14T09:25:04.967Z,1.17
2019-02-14T09:28:20.840Z,1.10
2019-02-14T09:31:36.814Z,1.40
2019-02-14T09:34:52.852Z,1.00
2019-02-14T09:38:08.788Z,1.50
2019-02-14T09:41:24.845Z,1.10
2019-02-14T09:44:40.606Z,1.03
2019-02-14T09:47:56.756Z,1.13
2019-02-14T09:51:12.405Z,1.40
2019-02-14T09:54:27.679Z,1.27
2019-02-14T09:57:43.494Z,1.40
2019-02-14T10:00:59.631Z,1.30
2019-02-14T10:04:13.256Z,1.17
2019-02-14T10:07:28.639Z,1.10
2019-02-14T10:10:44.840Z,1.20
2019-02-14T10:14:00.184Z,1.20
2019-02-14T10:17:21.990Z,1.10
2019-02-14T10:20:33.878Z,1.20
2019-02-14T10:23:49.879Z,1.47
2019-02-14T10:27:05.730Z,1.40
2019-02-14T10:30:20.970Z,1.30
2019-02-14T10:33:36.158Z,1.00
2019-02-14T10:36:52.755Z,1.60
2019-02-14T10:40:08.453Z,1.20
2019-02-14T10:43:27.718Z,1.37
2019-02-14T10:46:43.260Z,1.17
2019-02-14T10:49:59.385Z,1.30
2019-02-14T10:56:32.184Z,1.20
2019-02-14T10:59:54.947Z,1.10
2019-02-14T11:03:10.870Z,1.20
2019-02-14T11:06:26.974Z,1.27
2019-02-14T11:09:42.491Z,1.30
2019-02-14T11:12:58.181Z,1.17
2019-02-14T11:16:14.194Z,1.00
2019-02-14T11:19:30.041Z,1.50
2019-02-14T11:22:45.251Z,1.17
2019-02-14T11:26:01.216Z,1.23
2019-02-14T11:29:17.911Z,1.10
2019-02-14T11:32:34.210Z,1.20
2019-02-14T11:35:50.428Z,1.17
2019-02-14T11:39:05.719Z,1.00
2019-02-14T11:42:21.881Z,1.10
2019-02-14T11:45:37.863Z,1.30
2019-02-14T11:48:53.079Z,1.07
2019-02-14T11:52:08.863Z,1.23
2019-02-14T11:55:24.859Z,1.00
2019-02-14T11:58:40.515Z,1.07
2019-02-14T12:01:55.791Z,1.00
2019-02-14T12:05:11.562Z,1.43
2019-02-14T12:08:26.895Z,1.17
2019-02-14T12:11:42.130Z,1.03
2019-02-14T12:14:57.746Z,1.40
2019-02-14T12:18:13.540Z,1.40
2019-02-14T12:21:29.296Z,1.20
2019-02-14T12:24:45.360Z,1.23
2019-02-14T12:28:01.316Z,1.10
2019-02-14T12:31:18.703Z,1.17
2019-02-14T12:34:34.749Z,1.30
2019-02-14T12:37:50.739Z,1.30
2019-02-14T12:41:06.055Z,1.50
2019-02-14T12:44:21.881Z,1.30
2019-02-14T12:47:37.154Z,1.40
2019-02-14T12:50:53.040Z,1.10
2019-02-14T12:54:08.971Z,1.30
2019-02-14T12:57:24.647Z,1.27
2019-02-14T13:00:40.538Z,1.20
2019-02-14T13:03:56.566Z,1.37
2019-02-14T13:07:12.250Z,1.30
2019-02-14T13:10:28.177Z,1.20
2019-02-14T13:13:49.318Z,1.20
2019-02-14T13:17:01.890Z,1.23
2019-02-14T13:20:17.776Z,1.13
2019-02-14T13:23:33.891Z,0.90
2019-02-14T13:26:49.678Z,1.20
2019-02-14T13:30:05.488Z,1.10
2019-02-14T13:33:21.641Z,1.10
2019-02-14T13:36:37.749Z,1.23
2019-02-14T13:39:52.988Z,1.30
2019-02-14T13:43:10.368Z,1.30
2019-02-14T13:46:25.909Z,1.10
2019-02-14T13:49:42.823Z,1.30
2019-02-14T13:52:58.099Z,1.20
2019-02-14T13:56:13.733Z,1.00
2019-02-14T13:59:29.002Z,1.20
2019-02-14T14:02:45.108Z,1.40
2019-02-14T14:06:00.803Z,1.20
2019-02-14T14:09:16.923Z,1.27
2019-02-14T14:12:32.238Z,1.00
2019-02-14T14:15:48.234Z,1.10
2019-02-14T14:19:06.297Z,1.23
2019-02-14T14:22:22.387Z,1.10
2019-02-14T14:25:38.225Z,1.30
2019-02-14T14:28:41.677Z,1.00
2019-02-14T14:32:04.355Z,1.20
2019-02-14T14:35:20.056Z,1.10
2019-02-14T14:38:35.591Z,1.10
2019-02-14T14:41:51.028Z,0.90
2019-02-14T14:45:08.312Z,1.03
2019-02-14T14:48:24.646Z,1.20
2019-02-14T14:51:40.071Z,1.03
2019-02-14T14:54:55.500Z,1.23
2019-02-14T14:58:11.643Z,1.17
2019-02-14T15:01:27.142Z,1.03
2019-02-14T15:04:43.163Z,1.17
2019-02-14T15:07:58.529Z,0.90
2019-02-14T15:11:13.754Z,1.50
2019-02-14T15:14:29.045Z,1.27
2019-02-14T15:17:45.175Z,1.10
2019-02-14T15:21:01.088Z,1.03
2019-02-14T15:24:17.086Z,1.20
2019-02-14T15:27:32.317Z,0.97
2019-02-14T15:30:48.402Z,1.00
2019-02-14T15:34:04.529Z,1.00
2019-02-14T15:37:19.795Z,1.20
2019-02-14T15:40:35.675Z,1.30
2019-02-14T15:43:51.320Z,1.00
2019-02-14T15:47:07.554Z,1.17
2019-02-14T15:50:23.364Z,0.93
2019-02-14T15:53:41.355Z,1.17
2019-02-14T15:56:56.778Z,1.00
2019-02-14T16:00:12.822Z,1.30
2019-02-14T16:03:28.944Z,1.20
2019-02-14T16:06:44.654Z,1.20
2019-02-14T16:10:00.976Z,1.20
2019-02-14T16:13:17.019Z,1.00
2019-02-14T16:16:32.348Z,1.10
2019-02-14T16:19:48.234Z,1.70
2019-02-14T16:23:05.936Z,1.30
2019-02-14T16:26:21.114Z,1.30
2019-02-14T16:29:37.200Z,1.00
2019-02-14T16:32:53.248Z,1.17
2019-02-14T16:36:09.413Z,0.93
2019-02-14T16:39:25.717Z,1.00
2019-02-14T16:42:41.934Z,1.10
2019-02-14T16:45:58.080Z,1.10
2019-02-14T16:49:13.695Z,1.27
2019-02-14T16:52:28.945Z,1.40
2019-02-14T16:55:45.016Z,1.30
2019-02-14T16:59:00.972Z,1.37
2019-02-14T17:02:16.683Z,1.50
2019-02-14T17:05:31.924Z,1.43
2019-02-14T17:08:47.951Z,1.00
2019-02-14T17:12:03.192Z,1.20
2019-02-14T17:15:19.212Z,1.20
2019-02-14T17:18:35.220Z,1.00
2019-02-14T17:21:50.398Z,0.90
2019-02-14T17:25:06.006Z,1.03
2019-02-14T17:28:21.486Z,1.40
2019-02-14T17:31:36.984Z,1.13
2019-02-14T17:34:53.162Z,1.10
2019-02-14T17:38:08.443Z,0.97
2019-02-14T17:41:23.732Z,1.40
2019-02-14T17:44:39.383Z,1.37
2019-02-14T17:47:54.662Z,1.00
2019-02-14T17:51:10.746Z,1.60
2019-02-14T17:54:26.850Z,1.13
2019-02-14T17:57:43.072Z,1.10
2019-02-14T18:00:58.790Z,1.20
2019-02-14T18:04:14.047Z,1.30
2019-02-14T18:07:29.342Z,1.10
2019-02-14T18:10:45.325Z,1.40
2019-02-14T18:14:00.718Z,1.33
2019-02-14T18:17:16.870Z,1.20
2019-02-14T18:20:32.715Z,1.27
2019-02-14T18:23:48.686Z,1.07
2019-02-14T18:27:04.830Z,1.20
2019-02-14T18:30:20.098Z,0.90
2019-02-14T18:33:36.139Z,1.23
2019-02-14T18:36:52.107Z,1.10
2019-02-14T18:40:07.818Z,1.20
2019-02-14T18:43:23.515Z,1.30
2019-02-14T18:46:39.282Z,1.30
2019-02-14T18:49:58.039Z,1.33
2019-02-14T18:53:11.861Z,0.93
2019-02-14T18:56:27.702Z,1.30
2019-02-14T18:59:42.975Z,1.30
2019-02-14T19:02:58.772Z,1.30
2019-02-14T19:06:14.415Z,1.33
2019-02-14T19:09:29.931Z,1.30
2019-02-14T19:12:45.271Z,1.30
2019-02-14T19:16:00.943Z,1.20
2019-02-14T19:19:16.971Z,1.23
2019-02-14T19:22:33.078Z,1.27
2019-02-14T19:25:48.378Z,1.00
2019-02-14T19:29:04.187Z,1.40
2019-02-14T19:32:19.906Z,1.40
2019-02-14T19:35:35.984Z,1.10
2019-02-14T19:38:51.836Z,1.10
2019-02-14T19:42:07.935Z,1.30
2019-02-14T19:45:24.014Z,1.27
2019-02-14T19:48:39.457Z,1.10
2019-02-14T19:51:55.552Z,1.30
2019-02-14T19:55:12.575Z,1.60
2019-02-14T19:58:28.499Z,1.40
2019-02-14T20:01:44.198Z,1.40
2019-02-14T20:05:00.531Z,1.10
2019-02-14T20:08:16.446Z,1.40
2019-02-14T20:11:36.709Z,1.33
2019-02-14T20:14:48.674Z,1.40
2019-02-14T20:18:03.830Z,1.27
2019-02-14T20:24:44.115Z,1.07
2019-02-14T20:28:00.169Z,1.40
2019-02-14T20:31:16.256Z,1.17
2019-02-14T20:34:32.425Z,1.50
2019-02-14T20:37:48.314Z,1.40
2019-02-14T20:41:04.392Z,1.57
2019-02-14T20:44:19.694Z,1.40
2019-02-14T20:47:34.975Z,1.67
2019-02-14T20:50:51.041Z,1.30
2019-02-14T20:54:06.869Z,1.30
2019-02-14T20:57:22.135Z,1.40
2019-02-14T21:00:38.309Z,1.37
2019-02-14T21:03:53.702Z,1.53
2019-02-14T21:07:09.574Z,1.43
2019-02-14T21:10:24.942Z,1.63
2019-02-14T21:13:40.742Z,1.60
2019-02-14T21:16:56.634Z,1.47
2019-02-14T21:20:11.825Z,1.40
2019-02-14T21:23:27.916Z,1.53
2019-02-14T21:26:43.069Z,1.60
2019-02-14T21:29:59.187Z,1.60
2019-02-14T21:33:15.224Z,1.50
2019-02-14T21:36:31.062Z,1.63
2019-02-14T21:39:47.272Z,1.70
2019-02-14T21:43:03.069Z,1.47
2019-02-14T21:46:18.462Z,1.63
2019-02-14T21:49:34.488Z,1.30
2019-02-14T21:52:50.535Z,1.73
2019-02-14T21:56:06.326Z,1.60
2019-02-14T21:59:22.448Z,1.73
2019-02-14T22:02:38.183Z,2.00
2019-02-14T22:05:54.025Z,1.70
2019-02-14T22:09:09.377Z,1.80
2019-02-14T22:12:38.818Z,1.67
2019-02-14T22:15:42.202Z,1.80
2019-02-14T22:18:55.875Z,1.70
2019-02-14T22:22:18.562Z,1.80
2019-02-14T22:25:32.115Z,1.90
2019-02-14T22:28:47.852Z,1.70
2019-02-14T22:32:03.905Z,1.80
2019-02-14T22:35:19.326Z,2.10
2019-02-14T22:38:35.254Z,2.00
2019-02-14T22:41:50.610Z,2.13
2019-02-14T22:45:06.530Z,1.70
2019-02-14T22:48:22.566Z,1.97
2019-02-14T22:51:38.313Z,2.00
2019-02-14T22:54:54.224Z,2.30
2019-02-14T22:58:09.447Z,1.90
2019-02-14T23:01:25.537Z,1.93
2019-02-14T23:04:41.612Z,2.10
2019-02-14T23:07:56.810Z,1.90
2019-02-14T23:11:12.143Z,2.10
2019-02-14T23:14:28.268Z,2.00
2019-02-14T23:17:43.478Z,2.13
2019-02-14T23:20:59.443Z,2.03
2019-02-14T23:24:15.097Z,2.10
2019-02-14T23:27:31.159Z,1.90
2019-02-14T23:30:47.154Z,2.20
2019-02-14T23:34:02.586Z,2.20
2019-02-14T23:40:52.043Z,2.30
2019-02-14T23:44:07.961Z,2.13
2019-02-14T23:47:24.072Z,2.50
2019-02-14T23:50:39.351Z,2.50
2019-02-14T23:53:55.250Z,2.23
2019-02-14T23:57:11.213Z,2.50
